Meath Environmental Platform

Observations for Trim Patrick St

Time AQI Temp °C Hum % Pres Pa CO μg/m³ H₂S μg/m³ NO μg/m³ NO₂ μg/m³ O₃ μg/m³ SO₂ μg/m³ PM1 μg/m³ PM2.5 μg/m³ PM10 μg/m³
Thursday 30 July 2026
19:25 3 22.5 41 68,829 0 13.33 1.53 16.51 74.6 6.24 2.86 7.77 8.55
19:24 3 22.5 41 68,839 0 14.02 1.52 22.71 71.69 6.45 2 7.77 8.55
19:23 3 22.6 41 68,821 0 11.05 1.53 19.1 71.29 6.35 2 7.79 8.57
19:22 3 22.6 40 68,825 0 10.18 1.54 12.54 73.1 5.95 2 7.8 8.58
19:21 3 22.6 40 68,833 0 13.35 1.54 15.6 77.25 6.51 2 7.8 8.58
19:20 3 22.6 40 68,841 0 11.95 1.55 16.9 70.73 5.96 2.86 8.6 9.46
19:19 3 22.7 40 68,849 0 11.92 1.55 18.5 70.64 6.23 2.86 9.38 10.32
19:18 3 22.7 40 68,863 0 12.03 1.56 17.86 74.69 6.65 3.71 10.96 12.05
19:17 3 22.7 40 68,853 0 10.78 1.55 13.1 79.23 6.35 3.71 10.2 11.22
19:16 3 22.8 40 68,869 0 7.87 1.55 12.6 70.9 6.19 4.57 11.79 12.97
19:15 3 22.8 40 68,859 0 10.3 1.54 8.75 76.4 6.66 5.43 12.54 13.79
19:14 3 22.8 40 68,876 0 10.22 1.54 15.02 61.37 6.22 3.71 10.97 12.07
19:13 3 22.9 40 68,871 0 14.51 1.53 24.12 74.52 7.29 4.57 10.16 11.18
19:12 3 22.9 40 68,861 0 9.72 1.53 11.2 76.73 6.55 3.71 9.39 10.33
19:11 3 22.9 40 68,847 0 10.75 1.55 13.3 71.7 6.46 3.71 9.4 10.34
19:10 3 23 40 68,861 0 9.74 1.55 17.76 70.85 6.14 3.71 10.96 12.05
19:09 3 23 40 68,847 0 14.88 1.53 17.05 76.24 7.33 2.86 8.59 9.45
19:08 3 23 40 68,861 0 11.97 1.55 22.49 67.14 6.68 2 7.82 8.6
19:07 3 23 40 68,875 0 15.7 1.55 24.44 70.9 7.23 2 8.59 9.45
19:06 3 23 40 68,865 0 15.12 1.53 24.79 66.22 6.85 3.71 8.6 9.46